Time;durP1;ratioP1;P1;durP2;ratioP2;P2;SDS_P1;SDS_P2;PMS_P1;PMS_P2;Temp;Humidity;BMP_temperature;BMP_pressure;BME280_temperature;BME280_humidity;BME280_pressure;Samples;Min_cycle;Max_cycle;Signal;HPM_P1;HPM_P2
2021/12/26 00:00:31;;;;;;;10.15;8.65;;;;;;;9.79;67.86;100704.56;5049427;27;102533;-51
2021/12/26 00:02:58;;;;;;;9.10;7.75;;;;;;;9.80;67.52;100703.47;5040980;27;102358;-51
2021/12/26 00:05:26;;;;;;;10.38;8.32;;;;;;;9.79;67.57;100699.13;5042708;27;102536;-50
2021/12/26 00:07:52;;;;;;;11.47;8.13;;;;;;;9.79;67.81;100720.88;5039957;27;104022;-51
2021/12/26 00:10:21;;;;;;;10.32;8.32;;;;;;;9.80;68.06;100727.13;5038527;27;102461;-51
2021/12/26 00:12:49;;;;;;;10.35;8.32;;;;;;;9.81;67.21;100734.22;5049776;27;102210;-51
2021/12/26 00:15:16;;;;;;;9.60;7.78;;;;;;;9.80;67.86;100744.22;5043120;27;102391;-51
2021/12/26 00:17:46;;;;;;;9.10;7.75;;;;;;;9.79;68.08;100748.03;5042002;27;104720;-51
2021/12/26 00:20:13;;;;;;;9.13;7.60;;;;;;;9.79;67.73;100755.38;5036369;27;101953;-51
2021/12/26 00:22:41;;;;;;;10.73;8.18;;;;;;;9.79;67.78;100753.47;5036706;27;102900;-50
2021/12/26 00:25:09;;;;;;;8.98;7.93;;;;;;;9.79;67.46;100748.03;5038102;27;102341;-51
2021/12/26 00:27:37;;;;;;;9.55;7.65;;;;;;;9.78;67.93;100740.97;5051478;27;103911;-51
2021/12/26 00:30:09;;;;;;;8.32;7.45;;;;;;;9.78;67.88;100742.88;5037421;27;102500;-51
2021/12/26 00:32:38;;;;;;;8.48;7.43;;;;;;;9.78;67.94;100746.41;5043690;27;102214;-50
2021/12/26 00:35:06;;;;;;;8.23;7.35;;;;;;;9.77;67.30;100750.22;5037419;27;102167;-51
2021/12/26 00:37:33;;;;;;;9.88;7.80;;;;;;;9.77;67.44;100747.50;5040951;27;103933;-51
2021/12/26 00:40:00;;;;;;;9.45;7.45;;;;;;;9.78;68.07;100751.84;5036490;27;102768;-51
2021/12/26 00:42:26;;;;;;;9.35;8.02;;;;;;;9.78;67.86;100757.28;5039596;27;102372;-51
2021/12/26 00:44:53;;;;;;;8.10;7.30;;;;;;;9.77;67.83;100761.09;5054238;27;103572;-51
2021/12/26 00:47:21;;;;;;;8.57;7.72;;;;;;;9.77;67.51;100755.66;5046647;27;104334;-51
2021/12/26 00:49:47;;;;;;;8.55;7.65;;;;;;;9.78;67.47;100759.19;5034173;27;102201;-50
2021/12/26 00:52:14;;;;;;;8.45;7.38;;;;;;;9.76;67.87;100759.44;5017682;28;102245;-51
2021/12/26 00:54:40;;;;;;;8.27;7.32;;;;;;;9.76;67.87;100755.91;5016272;28;102753;-51
2021/12/26 00:57:06;;;;;;;10.82;7.85;;;;;;;9.76;67.51;100758.63;5014907;27;104132;-50
2021/12/26 00:59:33;;;;;;;8.13;7.32;;;;;;;9.77;68.14;100771.13;5026168;28;103231;-51
2021/12/26 01:02:00;;;;;;;8.90;7.82;;;;;;;9.76;67.41;100764.88;5018477;27;102303;-51
2021/12/26 01:04:28;;;;;;;8.32;7.20;;;;;;;9.75;67.23;100763.25;5027719;27;102081;-50
2021/12/26 01:06:55;;;;;;;8.25;7.43;;;;;;;9.75;67.26;100768.69;5013784;27;103734;-51
2021/12/26 01:09:26;;;;;;;9.38;7.80;;;;;;;9.76;67.98;100754.00;5019464;27;102240;-51
2021/12/26 01:11:56;;;;;;;7.80;7.03;;;;;;;9.76;67.40;100747.75;5031901;27;103530;-51
2021/12/26 01:14:30;;;;;;;7.75;6.95;;;;;;;9.75;67.85;100740.69;5022068;27;102381;-51
2021/12/26 01:17:07;;;;;;;8.35;6.55;;;;;;;9.75;68.00;100746.94;5019621;27;102968;-51
2021/12/26 01:19:43;;;;;;;8.38;7.18;;;;;;;9.74;67.53;100750.75;5019858;28;102800;-50
2021/12/26 01:22:10;;;;;;;7.10;6.00;;;;;;;9.75;67.19;100751.56;5019821;27;102285;-51
2021/12/26 01:24:37;;;;;;;7.97;7.05;;;;;;;9.74;67.24;100756.19;5020610;27;102317;-50
2021/12/26 01:27:05;;;;;;;8.00;6.72;;;;;;;9.75;68.06;100751.56;5026677;27;103945;-51
2021/12/26 01:29:34;;;;;;;7.75;6.43;;;;;;;9.75;67.95;100757.81;5017526;28;103703;-50
2021/12/26 01:32:00;;;;;;;7.68;6.50;;;;;;;9.74;67.12;100753.47;5019067;28;106112;-51
2021/12/26 01:34:27;;;;;;;6.47;5.85;;;;;;;9.73;67.71;100759.97;5022872;28;102188;-50
2021/12/26 01:36:55;;;;;;;6.78;6.07;;;;;;;9.74;67.31;100766.25;5033139;27;103946;-51
2021/12/26 01:39:22;;;;;;;6.60;5.75;;;;;;;9.74;67.93;100777.13;5032551;27;102297;-51
2021/12/26 01:41:49;;;;;;;6.40;5.80;;;;;;;9.74;67.29;100767.06;5017472;28;103427;-50
2021/12/26 01:44:16;;;;;;;6.05;5.43;;;;;;;9.73;67.33;100764.59;5030546;27;102291;-51
2021/12/26 01:46:45;;;;;;;7.10;6.35;;;;;;;9.73;67.54;100764.59;5020263;28;104196;-51
2021/12/26 01:49:14;;;;;;;6.90;6.20;;;;;;;9.74;67.30;100771.69;5047884;27;102051;-50
2021/12/26 01:51:43;;;;;;;6.40;5.80;;;;;;;9.73;67.04;100767.31;5036649;27;102402;-51
2021/12/26 01:54:13;;;;;;;6.28;5.63;;;;;;;9.73;67.04;100764.59;5052495;27;102734;-50
2021/12/26 01:56:41;;;;;;;5.53;5.03;;;;;;;9.73;67.24;100765.41;5046421;27;103931;-51
2021/12/26 01:59:10;;;;;;;6.50;5.90;;;;;;;9.73;67.28;100762.69;5049740;27;102152;-51
2021/12/26 02:01:37;;;;;;;6.20;5.47;;;;;;;9.73;67.05;100765.41;5043237;27;102285;-51
2021/12/26 02:04:04;;;;;;;6.45;5.85;;;;;;;9.71;67.56;100773.00;5035631;27;102260;-51
2021/12/26 02:06:31;;;;;;;6.43;5.70;;;;;;;9.72;67.54;100771.94;5052224;27;103969;-50
2021/12/26 02:08:57;;;;;;;6.63;5.95;;;;;;;9.73;66.98;100772.75;5039212;27;102266;-51
2021/12/26 02:11:25;;;;;;;6.65;5.95;;;;;;;9.72;67.15;100762.97;5047889;27;102438;-51
2021/12/26 02:13:51;;;;;;;6.40;5.50;;;;;;;9.71;67.41;100767.59;5045980;27;102383;-51
2021/12/26 02:16:18;;;;;;;6.18;5.57;;;;;;;9.73;67.24;100772.75;5049621;27;103920;-51
2021/12/26 02:18:44;;;;;;;6.03;5.10;;;;;;;9.72;67.05;100785.50;5050707;27;102301;-51
2021/12/26 02:29:03;;;;;;;6.30;5.50;;;;;;;9.72;67.97;100795.56;5034073;27;102679;-51
2021/12/26 02:31:30;;;;;;;6.47;5.88;;;;;;;9.72;67.47;100803.72;5042485;27;102482;-51
2021/12/26 02:33:56;;;;;;;5.72;5.20;;;;;;;9.72;67.17;100807.25;5044654;27;102578;-51
2021/12/26 02:36:24;;;;;;;6.40;5.25;;;;;;;9.72;67.87;100811.88;5052017;27;103880;-51
2021/12/26 02:38:50;;;;;;;6.25;5.50;;;;;;;9.72;67.88;100815.41;5048221;27;102330;-50
2021/12/26 02:41:17;;;;;;;6.15;5.55;;;;;;;9.72;67.73;100829.00;5036768;27;102222;-51
2021/12/26 02:43:44;;;;;;;5.95;5.35;;;;;;;9.72;67.66;100833.63;5039251;27;102709;-51
2021/12/26 02:46:10;;;;;;;5.95;5.35;;;;;;;9.72;67.28;100830.91;5040528;27;104015;-50
2021/12/26 02:48:38;;;;;;;6.85;5.95;;;;;;;9.72;67.53;100828.19;5045919;27;103015;-51
2021/12/26 02:51:05;;;;;;;6.25;5.65;;;;;;;9.72;67.41;100837.16;5046856;27;102561;-51
2021/12/26 02:53:36;;;;;;;6.20;5.60;;;;;;;9.72;67.92;100850.75;5050761;27;102045;-51
2021/12/26 02:56:04;;;;;;;6.03;5.43;;;;;;;9.73;67.19;100837.97;5044497;27;103924;-50
2021/12/26 02:58:30;;;;;;;6.05;5.00;;;;;;;9.72;67.27;100829.00;5039872;27;102424;-50
2021/12/26 03:01:04;;;;;;;6.07;5.47;;;;;;;9.72;67.35;100839.88;5037783;27;102478;-51
2021/12/26 03:03:31;;;;;;;6.03;5.43;;;;;;;9.72;67.53;100828.19;5040121;27;102262;-51
2021/12/26 03:06:01;;;;;;;5.50;5.00;;;;;;;9.72;67.15;100829.00;5050410;27;103943;-51
2021/12/26 03:08:28;;;;;;;5.47;4.97;;;;;;;9.74;66.99;100842.34;5038436;27;102154;-50
2021/12/26 03:10:56;;;;;;;6.05;5.03;;;;;;;9.73;67.30;100833.34;5051730;27;105571;-51
2021/12/26 03:13:23;;;;;;;6.57;5.95;;;;;;;9.73;67.08;100836.06;5045757;27;102344;-51
2021/12/26 03:15:49;;;;;;;5.88;5.28;;;;;;;9.73;67.00;100852.38;5046883;27;103817;-51
2021/12/26 03:18:17;;;;;;;5.55;4.55;;;;;;;9.73;67.69;100854.28;5054678;27;102394;-51
2021/12/26 03:20:47;;;;;;;5.72;5.13;;;;;;;9.73;67.33;100857.00;5042230;27;102304;-50
2021/12/26 03:23:18;;;;;;;6.03;5.35;;;;;;;9.73;67.80;100848.84;5043240;27;102534;-50
2021/12/26 03:25:45;;;;;;;7.03;5.82;;;;;;;9.72;67.77;100839.88;5046088;27;103968;-50
2021/12/26 03:28:13;;;;;;;5.85;5.30;;;;;;;9.72;67.24;100850.75;5043646;27;102250;-50
2021/12/26 03:30:40;;;;;;;6.32;5.72;;;;;;;9.73;67.44;100857.00;5041199;27;102495;-50
2021/12/26 03:33:09;;;;;;;5.75;5.20;;;;;;;9.73;67.55;100857.00;5043459;27;102232;-51
2021/12/26 03:35:37;;;;;;;6.00;5.38;;;;;;;9.73;67.30;100852.38;5037259;27;103844;-50
2021/12/26 03:38:06;;;;;;;5.88;5.05;;;;;;;9.72;67.35;100864.31;5043303;27;102261;-50
2021/12/26 03:40:33;;;;;;;6.03;5.43;;;;;;;9.73;67.70;100865.94;5042151;27;102162;-51
2021/12/26 03:42:59;;;;;;;6.07;4.82;;;;;;;9.73;66.96;100865.94;5047252;27;102206;-51
2021/12/26 03:45:28;;;;;;;5.50;4.95;;;;;;;9.72;67.39;100877.91;5041225;27;105819;-51
2021/12/26 03:47:54;;;;;;;5.93;5.13;;;;;;;9.73;67.37;100884.16;5051679;27;102346;-50
2021/12/26 03:50:23;;;;;;;5.43;4.80;;;;;;;9.73;67.16;100884.97;5051981;27;102282;-50
2021/12/26 03:52:50;;;;;;;5.68;5.15;;;;;;;9.73;67.33;100878.72;5041071;27;103793;-50
2021/12/26 03:55:16;;;;;;;5.28;4.78;;;;;;;9.72;67.48;100880.63;5040363;27;106632;-51
2021/12/26 03:57:44;;;;;;;6.07;4.93;;;;;;;9.72;66.87;100875.19;5038731;27;102237;-50
2021/12/26 04:00:14;;;;;;;5.28;4.78;;;;;;;9.73;67.60;100874.09;5044914;27;102453;-51
2021/12/26 04:02:42;;;;;;;5.03;4.60;;;;;;;9.73;67.55;100879.53;5048038;27;102118;-51
2021/12/26 04:05:09;;;;;;;6.07;4.88;;;;;;;9.72;67.28;100894.22;5049569;27;103650;-51
2021/12/26 04:07:37;;;;;;;5.15;4.65;;;;;;;9.72;67.08;100905.09;5050195;27;102787;-50
2021/12/26 04:10:04;;;;;;;4.88;4.40;;;;;;;9.72;67.22;100907.81;5041322;27;103703;-50
2021/12/26 04:12:36;;;;;;;5.55;4.93;;;;;;;9.73;67.51;100916.78;5036829;27;102288;-51
2021/12/26 04:15:04;;;;;;;5.25;4.75;;;;;;;9.73;67.57;100912.16;5038833;27;104240;-51
2021/12/26 04:17:30;;;;;;;4.72;4.28;;;;;;;9.73;67.37;100912.16;5052904;27;102235;-50
2021/12/26 04:19:58;;;;;;;5.38;4.88;;;;;;;9.72;66.92;100935.00;5035917;27;102398;-50
2021/12/26 04:22:25;;;;;;;5.18;4.68;;;;;;;9.72;67.81;100940.44;5042579;27;102270;-50
2021/12/26 04:24:54;;;;;;;6.22;4.80;;;;;;;9.72;67.20;100926.84;5049057;27;103756;-51
2021/12/26 04:27:21;;;;;;;5.38;4.78;;;;;;;9.73;67.54;100927.66;5045706;27;103528;-50
2021/12/26 04:29:48;;;;;;;5.90;4.97;;;;;;;9.73;66.99;100933.91;5038501;27;102124;-50
2021/12/26 04:32:15;;;;;;;4.80;4.30;;;;;;;9.72;67.04;100929.56;5048189;27;102714;-51
2021/12/26 04:34:42;;;;;;;4.70;4.30;;;;;;;9.73;67.65;100931.19;5036024;27;104052;-51
2021/12/26 04:37:10;;;;;;;5.07;4.45;;;;;;;9.73;66.84;100927.66;5052585;27;102194;-51
2021/12/26 04:39:37;;;;;;;4.72;4.30;;;;;;;9.72;67.79;100932.28;5052058;27;102221;-50
2021/12/26 04:42:04;;;;;;;5.70;4.60;;;;;;;9.73;66.90;100927.66;5039350;27;102266;-51
2021/12/26 04:44:32;;;;;;;4.60;4.18;;;;;;;9.72;67.20;100921.41;5048375;27;104104;-51
2021/12/26 04:46:58;;;;;;;4.80;4.30;;;;;;;9.72;67.06;100924.13;5040285;27;102313;-51
2021/12/26 04:49:24;;;;;;;4.53;4.07;;;;;;;9.72;67.48;100926.84;5045824;27;102541;-51
2021/12/26 04:51:51;;;;;;;4.63;3.95;;;;;;;9.72;67.36;100926.03;5042012;27;102167;-50
2021/12/26 04:54:18;;;;;;;4.78;4.28;;;;;;;9.73;67.85;100933.09;5045717;27;103714;-51
2021/12/26 04:56:45;;;;;;;4.97;4.47;;;;;;;9.72;67.21;100942.31;5046491;27;102210;-51
2021/12/26 04:59:11;;;;;;;5.15;4.63;;;;;;;9.72;67.01;100943.13;5051240;27;102398;-50
2021/12/26 05:01:40;;;;;;;5.00;4.50;;;;;;;9.72;66.90;100945.84;5048031;27;102490;-51
2021/12/26 05:04:06;;;;;;;5.50;5.00;;;;;;;9.72;67.69;100959.44;5040328;27;104064;-50
2021/12/26 05:06:33;;;;;;;4.88;4.38;;;;;;;9.71;67.35;100962.44;5038303;27;102116;-50
2021/12/26 05:08:59;;;;;;;5.07;4.20;;;;;;;9.71;66.97;100967.88;5045430;27;102464;-50
2021/12/26 05:11:28;;;;;;;4.85;4.35;;;;;;;9.72;67.53;100964.88;5042793;27;102819;-52
2021/12/26 05:13:54;;;;;;;5.43;4.82;;;;;;;9.72;67.58;100974.94;5035974;27;104222;-50
2021/12/26 05:16:21;;;;;;;4.70;4.30;;;;;;;9.71;67.32;100968.69;5045181;27;102410;-50
2021/12/26 05:18:48;;;;;;;5.43;4.93;;;;;;;9.71;67.62;100971.41;5045217;27;103604;-51
2021/12/26 05:21:14;;;;;;;4.78;4.38;;;;;;;9.72;67.31;100967.59;5051941;27;102190;-50
2021/12/26 05:23:41;;;;;;;5.85;5.05;;;;;;;9.71;67.65;100971.41;5035110;27;103746;-50
2021/12/26 05:26:07;;;;;;;4.38;3.97;;;;;;;9.72;66.93;100986.63;5046399;27;102114;-51
2021/12/26 05:28:35;;;;;;;4.90;4.13;;;;;;;9.72;67.16;100992.06;5045327;27;102575;-50
2021/12/26 05:31:02;;;;;;;5.63;5.00;;;;;;;9.71;67.11;101004.03;5046785;27;102151;-50
2021/12/26 05:33:29;;;;;;;5.80;4.40;;;;;;;9.72;67.03;101008.38;5046365;27;103899;-50
2021/12/26 05:35:55;;;;;;;5.25;4.75;;;;;;;9.72;67.61;101013.00;5037005;27;103740;-50
2021/12/26 05:38:23;;;;;;;4.68;4.28;;;;;;;9.71;67.58;101006.75;5040101;27;103661;-51
2021/12/26 05:40:49;;;;;;;4.80;4.30;;;;;;;9.72;66.71;101002.94;5042744;27;102627;-50
2021/12/26 05:43:15;;;;;;;5.28;4.78;;;;;;;9.71;66.83;100993.16;5040340;27;103897;-50
2021/12/26 05:45:43;;;;;;;4.75;4.35;;;;;;;9.71;66.92;101004.03;5037582;27;102189;-50
2021/12/26 05:48:10;;;;;;;4.55;4.10;;;;;;;9.70;67.13;101005.09;5037690;27;102224;-50
2021/12/26 05:50:37;;;;;;;4.53;4.13;;;;;;;9.71;67.55;101017.59;5045984;27;102166;-50
2021/12/26 05:53:05;;;;;;;4.80;4.40;;;;;;;9.71;67.70;101027.66;5038809;27;103930;-51
2021/12/26 05:55:31;;;;;;;4.85;4.45;;;;;;;9.71;67.41;101033.91;5046443;27;103101;-50
2021/12/26 05:57:58;;;;;;;4.80;4.28;;;;;;;9.70;67.43;101032.28;5049176;27;103307;-55
2021/12/26 06:00:24;;;;;;;4.60;4.20;;;;;;;9.71;67.16;101043.97;5043449;27;102456;-50
2021/12/26 06:02:54;;;;;;;4.90;4.50;;;;;;;9.70;67.20;101043.16;5044146;27;103961;-50
2021/12/26 06:05:21;;;;;;;5.43;4.15;;;;;;;9.71;67.34;101043.97;5050983;27;102610;-51
2021/12/26 06:07:49;;;;;;;4.55;4.13;;;;;;;9.70;67.43;101042.31;5044485;27;102160;-50
2021/12/26 06:10:15;;;;;;;5.03;4.50;;;;;;;9.71;67.38;101049.41;5048438;27;102421;-50
2021/12/26 06:12:42;;;;;;;5.35;4.03;;;;;;;9.72;67.31;101056.47;5044596;27;103926;-51
2021/12/26 06:15:09;;;;;;;4.85;4.18;;;;;;;9.70;66.69;101064.91;5045739;27;102495;-50
2021/12/26 06:17:35;;;;;;;5.07;4.57;;;;;;;9.71;67.08;101065.72;5039824;27;102072;-51
2021/12/26 06:20:05;;;;;;;4.50;4.07;;;;;;;9.70;67.31;101070.34;5036394;27;102669;-50
2021/12/26 06:22:33;;;;;;;4.78;4.20;;;;;;;9.71;67.05;101065.72;5034397;27;103978;-50
2021/12/26 06:24:59;;;;;;;3.95;3.55;;;;;;;9.70;66.95;101064.91;5038682;27;102360;-51
2021/12/26 06:27:26;;;;;;;5.70;4.40;;;;;;;9.69;67.61;101071.38;5041685;27;102229;-50
2021/12/26 06:29:52;;;;;;;4.10;3.70;;;;;;;9.71;67.43;101069.25;5046237;27;102632;-50
2021/12/26 06:32:18;;;;;;;4.78;4.15;;;;;;;9.70;67.53;101074.91;5043790;27;104021;-51
2021/12/26 06:34:45;;;;;;;4.38;3.97;;;;;;;9.70;67.58;101075.75;5039764;27;102504;-50
2021/12/26 06:37:13;;;;;;;4.65;4.15;;;;;;;9.70;66.63;101081.19;5036234;27;102191;-50
2021/12/26 06:39:39;;;;;;;5.00;4.07;;;;;;;9.70;67.09;101089.34;5045739;27;102303;-51
2021/12/26 06:42:06;;;;;;;4.30;3.90;;;;;;;9.68;67.55;101077.91;5044219;27;105238;-51
2021/12/26 06:44:33;;;;;;;4.28;3.78;;;;;;;9.69;67.02;101073.28;5046331;27;102147;-51
2021/12/26 06:47:00;;;;;;;4.78;4.28;;;;;;;9.69;67.29;101074.09;5042206;27;102173;-51
2021/12/26 06:49:26;;;;;;;4.50;3.97;;;;;;;9.69;66.96;101079.53;5042682;27;102255;-51
2021/12/26 06:51:52;;;;;;;5.20;4.70;;;;;;;9.70;66.88;101081.19;5040519;27;103913;-51
2021/12/26 06:54:20;;;;;;;5.10;4.25;;;;;;;9.68;66.97;101069.75;5049607;27;102427;-50
2021/12/26 06:56:46;;;;;;;5.78;4.18;;;;;;;9.69;66.94;101074.09;5049275;27;103410;-51
2021/12/26 06:59:13;;;;;;;6.28;4.55;;;;;;;9.70;66.99;101064.06;5055383;27;102264;-50
2021/12/26 07:01:39;;;;;;;4.40;4.00;;;;;;;9.68;67.05;101072.47;5043114;27;104387;-50
2021/12/26 07:04:05;;;;;;;4.55;4.03;;;;;;;9.70;67.27;101085.78;5047502;27;105360;-51
2021/12/26 07:06:32;;;;;;;4.40;4.00;;;;;;;9.69;66.73;101090.41;5046715;27;101937;-50
2021/12/26 07:08:58;;;;;;;5.63;4.93;;;;;;;9.68;66.93;101083.34;5051814;27;102534;-50
2021/12/26 07:11:27;;;;;;;5.15;4.35;;;;;;;9.69;66.93;101084.97;5041519;27;103996;-51
2021/12/26 07:13:56;;;;;;;5.10;4.28;;;;;;;9.69;67.38;101084.97;5042306;27;102875;-51
2021/12/26 07:16:23;;;;;;;4.75;3.85;;;;;;;9.68;66.99;101088.78;5052358;27;103001;-51
2021/12/26 07:18:51;;;;;;;5.22;4.72;;;;;;;9.69;67.47;101095.84;5052008;27;102358;-51
2021/12/26 07:21:17;;;;;;;5.20;4.70;;;;;;;9.69;67.04;101106.72;5049223;27;103842;-50
2021/12/26 07:23:45;;;;;;;5.85;5.05;;;;;;;9.68;66.49;101105.09;5047782;27;102413;-50
2021/12/26 07:26:11;;;;;;;5.20;4.68;;;;;;;9.69;66.94;101106.72;5050683;27;102247;-50
2021/12/26 07:28:39;;;;;;;4.80;4.30;;;;;;;9.68;66.99;101107.81;5039020;27;102305;-51
2021/12/26 07:31:06;;;;;;;4.93;4.40;;;;;;;9.69;67.46;101111.34;5045987;27;107796;-51
2021/12/26 07:33:34;;;;;;;5.60;4.77;;;;;;;9.69;67.05;101105.91;5047068;27;103397;-50
2021/12/26 07:36:00;;;;;;;5.45;4.93;;;;;;;9.68;67.52;101115.97;5039785;27;102381;-51
2021/12/26 07:38:27;;;;;;;5.70;4.90;;;;;;;9.68;67.26;101113.25;5038475;27;102358;-51
2021/12/26 07:40:53;;;;;;;5.15;4.63;;;;;;;9.69;66.56;101119.50;5037815;27;103970;-50
2021/12/26 07:43:19;;;;;;;5.03;4.18;;;;;;;9.67;66.86;101130.63;5038821;27;102365;-51
2021/12/26 07:45:47;;;;;;;5.85;4.80;;;;;;;9.70;67.16;101134.72;5038081;27;102407;-51
2021/12/26 07:48:14;;;;;;;5.07;4.55;;;;;;;9.69;67.42;101138.50;5044884;27;102727;-51
2021/12/26 07:50:41;;;;;;;5.03;4.55;;;;;;;9.69;67.38;101138.50;5047705;27;103911;-50
2021/12/26 07:53:10;;;;;;;5.30;4.80;;;;;;;9.70;66.99;101137.44;5050150;27;103470;-50
2021/12/26 07:55:39;;;;;;;5.85;4.47;;;;;;;9.69;67.41;101142.03;5041053;27;102257;-50
2021/12/26 07:58:06;;;;;;;4.72;4.22;;;;;;;9.69;66.99;101144.75;5044780;27;102250;-50
2021/12/26 08:00:33;;;;;;;5.80;4.65;;;;;;;9.69;66.88;101139.34;5035289;27;103910;-51
2021/12/26 08:03:02;;;;;;;6.95;5.22;;;;;;;9.70;66.56;101145.59;5050965;27;102302;-50
2021/12/26 08:05:29;;;;;;;6.13;4.77;;;;;;;9.71;66.53;101149.97;5047372;27;103066;-51
2021/12/26 08:07:55;;;;;;;5.72;5.05;;;;;;;9.70;67.28;101151.88;5039223;27;102231;-51
2021/12/26 08:10:23;;;;;;;5.43;4.45;;;;;;;9.71;67.45;101150.78;5042615;27;103902;-50
2021/12/26 08:12:49;;;;;;;6.65;4.50;;;;;;;9.70;67.52;101160.03;5048532;27;101785;-50
2021/12/26 08:15:19;;;;;;;5.07;4.57;;;;;;;9.70;67.20;101154.59;5030440;27;102139;-50
2021/12/26 08:17:45;;;;;;;6.63;5.25;;;;;;;9.70;67.28;101162.75;5041128;27;102850;-50
2021/12/26 08:20:14;;;;;;;6.22;5.13;;;;;;;9.71;67.54;101167.09;5046718;27;103874;-50
2021/12/26 08:22:40;;;;;;;6.57;5.37;;;;;;;9.71;66.83;101167.09;5050425;27;102140;-51
2021/12/26 08:25:07;;;;;;;6.45;5.00;;;;;;;9.70;66.97;101162.75;5038246;27;103167;-50
2021/12/26 08:27:34;;;;;;;6.30;4.68;;;;;;;9.71;67.00;101164.38;5042560;27;102780;-51
2021/12/26 08:30:02;;;;;;;5.70;4.75;;;;;;;9.72;66.60;101163.28;5039494;27;104093;-51
2021/12/26 08:32:30;;;;;;;5.82;5.05;;;;;;;9.72;66.93;101159.75;5040833;27;102672;-51
2021/12/26 08:34:59;;;;;;;5.60;5.05;;;;;;;9.71;67.08;101158.13;5037441;27;102021;-50
2021/12/26 08:37:28;;;;;;;8.30;5.40;;;;;;;9.72;66.82;101152.41;5043242;27;102107;-50
2021/12/26 08:39:54;;;;;;;7.60;5.32;;;;;;;9.72;66.89;101152.41;5039324;27;103756;-51
2021/12/26 08:42:21;;;;;;;6.15;5.15;;;;;;;9.71;66.65;101158.94;5038431;27;104316;-50
2021/12/26 08:44:48;;;;;;;6.88;5.50;;;;;;;9.71;66.94;101164.38;5042549;27;102070;-50
2021/12/26 08:47:14;;;;;;;6.25;5.40;;;;;;;9.72;66.69;101170.63;5046935;27;102353;-50
2021/12/26 08:49:40;;;;;;;6.30;5.25;;;;;;;9.71;67.13;101158.13;5041786;27;104007;-51
2021/12/26 08:52:08;;;;;;;5.88;5.20;;;;;;;9.71;67.12;101167.09;5045720;27;102731;-50
2021/12/26 08:54:37;;;;;;;7.03;5.75;;;;;;;9.71;66.85;101161.66;5044559;27;102423;-50
2021/12/26 08:57:07;;;;;;;6.65;5.53;;;;;;;9.71;67.42;101161.66;5048054;27;102926;-50
2021/12/26 08:59:34;;;;;;;8.20;5.60;;;;;;;9.70;66.54;101157.31;5040077;27;103924;-51
2021/12/26 09:02:03;;;;;;;5.78;5.18;;;;;;;9.71;67.21;101158.94;5040972;27;103973;-50
2021/12/26 09:04:30;;;;;;;7.70;5.50;;;;;;;9.72;66.67;101160.56;5045350;27;102202;-51
2021/12/26 09:06:57;;;;;;;6.50;5.63;;;;;;;9.71;66.75;101164.38;5042993;27;104004;-50
2021/12/26 09:09:25;;;;;;;5.72;5.00;;;;;;;9.71;67.37;101164.38;5038672;27;103917;-51
2021/12/26 09:11:53;;;;;;;6.88;5.78;;;;;;;9.71;66.83;101175.25;5049980;27;102118;-50
2021/12/26 09:14:20;;;;;;;6.10;5.30;;;;;;;9.72;67.21;101173.34;5043437;27;103409;-51
2021/12/26 09:16:46;;;;;;;6.43;5.28;;;;;;;9.72;67.27;101165.19;5037618;27;102570;-51
2021/12/26 09:19:15;;;;;;;6.00;5.40;;;;;;;9.72;67.39;101170.63;5044642;27;103934;-50
2021/12/26 09:21:41;;;;;;;6.53;5.50;;;;;;;9.71;67.36;101169.81;5044539;27;103635;-50
2021/12/26 09:24:08;;;;;;;7.90;5.63;;;;;;;9.72;66.96;101173.34;5038617;27;102796;-50
2021/12/26 09:26:35;;;;;;;7.28;5.43;;;;;;;9.71;66.95;101175.25;5044091;27;102635;-50
2021/12/26 09:29:02;;;;;;;9.05;5.60;;;;;;;9.72;67.27;101173.34;5045899;27;104137;-50
2021/12/26 09:31:30;;;;;;;6.60;5.87;;;;;;;9.71;67.23;101175.25;5052281;27;102456;-51
2021/12/26 09:33:56;;;;;;;6.10;5.43;;;;;;;9.72;66.69;101171.44;5049254;27;102276;-50
2021/12/26 09:36:22;;;;;;;6.78;5.40;;;;;;;9.71;67.24;101174.44;5048629;27;103859;-51
2021/12/26 09:38:49;;;;;;;7.90;5.80;;;;;;;9.71;66.70;101177.97;5051131;27;104118;-50
2021/12/26 09:41:15;;;;;;;6.65;5.53;;;;;;;9.71;67.35;101172.53;5051091;27;102533;-50
2021/12/26 09:43:42;;;;;;;6.50;5.80;;;;;;;9.72;66.59;101174.16;5041904;27;102198;-50
2021/12/26 09:46:10;;;;;;;6.15;5.38;;;;;;;9.74;66.45;101171.19;5038374;27;104193;-51
2021/12/26 09:48:36;;;;;;;8.77;5.93;;;;;;;9.73;67.33;101170.34;5048852;27;104339;-51
2021/12/26 09:51:03;;;;;;;6.97;5.60;;;;;;;9.73;67.37;101167.63;5041590;27;102159;-50
2021/12/26 09:53:37;;;;;;;6.40;4.90;;;;;;;9.74;66.93;101165.75;5047814;27;103741;-50
2021/12/26 09:56:04;;;;;;;7.35;5.57;;;;;;;9.73;67.29;101162.19;5037775;27;102394;-52
2021/12/26 09:58:31;;;;;;;5.90;4.93;;;;;;;9.74;66.85;101153.00;5042663;27;104191;-51
2021/12/26 10:00:57;;;;;;;6.45;5.75;;;;;;;9.74;66.42;101141.31;5041241;27;102140;-51
2021/12/26 10:03:33;;;;;;;7.13;6.07;;;;;;;9.75;67.02;101148.38;5049214;27;102074;-50
2021/12/26 10:06:12;;;;;;;6.80;5.78;;;;;;;9.75;67.38;101138.31;5042284;27;101986;-50
2021/12/26 10:08:57;;;;;;;6.37;5.67;;;;;;;9.74;67.26;101139.41;5048944;27;103920;-50
2021/12/26 10:11:26;;;;;;;7.05;5.90;;;;;;;9.75;66.79;101143.75;5045952;27;101960;-51
2021/12/26 10:13:56;;;;;;;7.07;6.13;;;;;;;9.75;66.63;101141.03;5042226;27;104187;-50
2021/12/26 10:16:25;;;;;;;8.65;6.60;;;;;;;9.75;67.09;101142.94;5042942;27;102749;-50
2021/12/26 10:18:54;;;;;;;7.30;5.93;;;;;;;9.75;66.68;101142.94;5045609;27;103940;-50
2021/12/26 10:21:36;;;;;;;7.88;6.55;;;;;;;9.74;66.70;101147.56;5051221;27;102337;-51
2021/12/26 10:24:06;;;;;;;7.03;5.60;;;;;;;9.74;66.68;101153.00;5045637;27;102179;-50
2021/12/26 10:26:34;;;;;;;7.93;6.38;;;;;;;9.75;66.96;101151.91;5046654;27;102149;-50
2021/12/26 10:29:06;;;;;;;7.57;6.28;;;;;;;9.75;67.04;101154.63;5039619;27;103952;-51
2021/12/26 10:31:34;;;;;;;7.10;5.97;;;;;;;9.75;67.06;101154.63;5042987;27;102310;-51
2021/12/26 10:34:03;;;;;;;6.90;6.13;;;;;;;9.74;66.65;101150.28;5042094;27;103525;-51
2021/12/26 10:36:30;;;;;;;7.13;6.43;;;;;;;9.74;67.14;101149.47;5042935;27;102274;-51
2021/12/26 10:39:08;;;;;;;6.10;5.50;;;;;;;9.74;67.07;101152.19;5040965;27;103896;-50
2021/12/26 10:41:41;;;;;;;7.82;6.28;;;;;;;9.75;67.30;101145.66;5041119;27;102807;-50
2021/12/26 10:44:17;;;;;;;6.70;6.00;;;;;;;9.74;66.67;101154.91;5040463;27;102853;-50
2021/12/26 10:46:46;;;;;;;6.70;5.70;;;;;;;9.75;67.04;101149.19;5053452;27;102303;-50
2021/12/26 10:49:28;;;;;;;9.38;6.30;;;;;;;9.74;66.92;101153.00;5041934;27;104217;-50
2021/12/26 10:51:55;;;;;;;7.00;6.20;;;;;;;9.74;67.15;101153.00;5039034;27;102156;-51
2021/12/26 10:54:31;;;;;;;7.00;6.10;;;;;;;9.73;66.67;101150.50;5038558;27;104303;-50
2021/12/26 10:57:10;;;;;;;6.82;6.00;;;;;;;9.74;66.71;101144.84;5047590;27;102072;-50
2021/12/26 10:59:39;;;;;;;7.05;6.22;;;;;;;9.73;66.88;101143.19;5044593;27;104042;-50
2021/12/26 11:02:06;;;;;;;7.57;6.30;;;;;;;9.73;66.20;101136.94;5047257;27;102116;-50
2021/12/26 11:04:36;;;;;;;7.80;6.07;;;;;;;9.74;66.29;101135.88;5048830;27;102286;-51
2021/12/26 11:07:10;;;;;;;7.18;5.93;;;;;;;9.73;66.38;101140.47;5048084;27;102400;-50
2021/12/26 11:09:37;;;;;;;8.55;6.70;;;;;;;9.73;66.42;101134.19;5049320;27;103891;-51
2021/12/26 11:12:06;;;;;;;7.10;6.10;;;;;;;9.73;66.57;101139.63;5043266;27;102159;-50
2021/12/26 11:14:57;;;;;;;7.18;6.13;;;;;;;9.72;66.31;101135.28;5043937;27;102252;-50
2021/12/26 11:17:29;;;;;;;6.57;5.57;;;;;;;9.73;66.18;101150.50;5039184;27;102369;-51
2021/12/26 11:19:57;;;;;;;7.50;6.28;;;;;;;9.72;66.75;101146.97;5038304;27;103885;-51
2021/12/26 11:22:24;;;;;;;7.57;6.30;;;;;;;9.72;66.36;101149.69;5046452;27;102325;-51
2021/12/26 11:24:50;;;;;;;8.68;6.53;;;;;;;9.72;66.83;101157.03;5038394;27;102307;-50
2021/12/26 11:27:16;;;;;;;8.18;6.18;;;;;;;9.72;66.39;101157.84;5045947;27;104601;-51
2021/12/26 11:29:43;;;;;;;7.25;5.97;;;;;;;9.71;66.85;101153.50;5041396;27;103761;-51
2021/12/26 11:32:10;;;;;;;6.40;5.72;;;;;;;9.72;67.11;101160.56;5045750;27;102493;-50
2021/12/26 11:34:37;;;;;;;7.45;6.13;;;;;;;9.71;66.44;101158.94;5035702;27;102555;-50